Terminal Aerodrome Forecast
Issued by NWS

Current Version | Previous Version | Text Only | Print | Product List | Glossary On
Versions: 1 2 3 4 5 6 7 8 9 10 11
000
FTUS44 KSJT 171100
TAFSOA
TAF
KSOA 171129Z 1712/1812 17010G17KT P6SM OVC015
     FM171600 17010G18KT P6SM OVC028
     FM171900 15007KT P6SM OVC040
     FM180400 08006KT P6SM OVC015=

USA.gov is the U.S. government's official web portal to all federal, state and local government web resources and services.